Terminal Aerodrome Forecast
Issued by NWS

Home | Current Version | Previous Version | Text Only | Print | Product List | Glossary On
Versions: 1 2 3 4 5 6 7 8 9 10 11 12 13 14 15 16 17 18 19 20 21 22 23 24 25 26 27 28 29 30 31 32 33
000
FTUS45 KBYZ 310533
TAFLVM
TAF
KLVM 310533Z 3106/0106 29007KT P6SM BKN120
     FM311800 33012KT P6SM BKN070
     FM312100 04011KT 4SM -SN BKN020 OVC030
     FM010200 06008KT P6SM -SN BKN025 OVC040=

USA.gov is the U.S. government's official web portal to all federal, state and local government web resources and services.